sensor_id;sensor_type;location;lat;lon;timestamp;temperature;humidity
4795;DHT22;2411;47.060;15.064;2022-12-10T00:01:26;2.30;99.90
4795;DHT22;2411;47.060;15.064;2022-12-10T00:03:54;2.30;99.90
4795;DHT22;2411;47.060;15.064;2022-12-10T00:06:24;2.30;99.90
4795;DHT22;2411;47.060;15.064;2022-12-10T00:08:52;2.30;99.90
4795;DHT22;2411;47.060;15.064;2022-12-10T00:11:21;2.30;99.90
4795;DHT22;2411;47.060;15.064;2022-12-10T00:13:49;2.30;99.90
4795;DHT22;2411;47.060;15.064;2022-12-10T00:16:18;2.30;99.90
4795;DHT22;2411;47.060;15.064;2022-12-10T00:18:46;2.30;99.90
4795;DHT22;2411;47.060;15.064;2022-12-10T00:21:16;2.30;99.90
4795;DHT22;2411;47.060;15.064;2022-12-10T00:23:45;2.30;99.90
4795;DHT22;2411;47.060;15.064;2022-12-10T00:26:18;2.30;99.90
4795;DHT22;2411;47.060;15.064;2022-12-10T00:28:46;2.30;99.90
4795;DHT22;2411;47.060;15.064;2022-12-10T00:31:21;2.30;99.90
4795;DHT22;2411;47.060;15.064;2022-12-10T00:33:49;2.30;99.90
4795;DHT22;2411;47.060;15.064;2022-12-10T00:36:20;2.30;99.90
4795;DHT22;2411;47.060;15.064;2022-12-10T00:38:48;2.40;99.90
4795;DHT22;2411;47.060;15.064;2022-12-10T00:41:16;2.30;99.90
4795;DHT22;2411;47.060;15.064;2022-12-10T00:43:44;2.30;99.90
4795;DHT22;2411;47.060;15.064;2022-12-10T00:46:13;2.40;99.90
4795;DHT22;2411;47.060;15.064;2022-12-10T00:48:41;2.60;99.90
4795;DHT22;2411;47.060;15.064;2022-12-10T00:51:15;2.60;99.90
4795;DHT22;2411;47.060;15.064;2022-12-10T00:53:44;2.60;99.90
4795;DHT22;2411;47.060;15.064;2022-12-10T00:56:13;2.40;99.90
4795;DHT22;2411;47.060;15.064;2022-12-10T00:58:41;2.20;98.30
4795;DHT22;2411;47.060;15.064;2022-12-10T01:01:25;2.20;99.30
4795;DHT22;2411;47.060;15.064;2022-12-10T01:03:57;2.30;99.90
4795;DHT22;2411;47.060;15.064;2022-12-10T01:06:29;2.40;99.90
4795;DHT22;2411;47.060;15.064;2022-12-10T01:09:00;2.40;99.90
4795;DHT22;2411;47.060;15.064;2022-12-10T01:11:30;2.50;99.90
4795;DHT22;2411;47.060;15.064;2022-12-10T01:13:58;2.60;99.90
4795;DHT22;2411;47.060;15.064;2022-12-10T01:16:26;2.60;99.90
4795;DHT22;2411;47.060;15.064;2022-12-10T01:18:55;2.70;99.90
4795;DHT22;2411;47.060;15.064;2022-12-10T01:21:23;2.70;99.90
4795;DHT22;2411;47.060;15.064;2022-12-10T01:23:52;2.60;99.90
4795;DHT22;2411;47.060;15.064;2022-12-10T01:26:25;2.50;99.90
4795;DHT22;2411;47.060;15.064;2022-12-10T01:28:54;2.50;99.90
4795;DHT22;2411;47.060;15.064;2022-12-10T01:31:24;2.60;99.90
4795;DHT22;2411;47.060;15.064;2022-12-10T01:33:52;2.60;99.90
4795;DHT22;2411;47.060;15.064;2022-12-10T01:36:32;2.60;99.90
4795;DHT22;2411;47.060;15.064;2022-12-10T01:39:00;2.60;99.90
4795;DHT22;2411;47.060;15.064;2022-12-10T01:41:32;2.50;99.90
4795;DHT22;2411;47.060;15.064;2022-12-10T01:46:37;2.50;99.90
4795;DHT22;2411;47.060;15.064;2022-12-10T01:49:11;2.50;99.90
4795;DHT22;2411;47.060;15.064;2022-12-10T01:51:42;2.50;99.90
4795;DHT22;2411;47.060;15.064;2022-12-10T01:54:16;2.50;99.90
4795;DHT22;2411;47.060;15.064;2022-12-10T01:56:47;2.50;99.90
4795;DHT22;2411;47.060;15.064;2022-12-10T01:59:17;2.50;99.90
4795;DHT22;2411;47.060;15.064;2022-12-10T02:07:09;2.60;99.90
4795;DHT22;2411;47.060;15.064;2022-12-10T02:10:01;2.50;99.90
4795;DHT22;2411;47.060;15.064;2022-12-10T02:12:53;2.50;99.90
4795;DHT22;2411;47.060;15.064;2022-12-10T02:15:25;2.60;99.90
4795;DHT22;2411;47.060;15.064;2022-12-10T02:18:07;2.50;99.90
4795;DHT22;2411;47.060;15.064;2022-12-10T02:20:41;2.50;99.90
4795;DHT22;2411;47.060;15.064;2022-12-10T02:23:26;2.60;99.90
4795;DHT22;2411;47.060;15.064;2022-12-10T02:31:47;2.60;99.90
4795;DHT22;2411;47.060;15.064;2022-12-10T02:34:16;2.50;99.90
4795;DHT22;2411;47.060;15.064;2022-12-10T02:36:47;2.60;99.90
4795;DHT22;2411;47.060;15.064;2022-12-10T02:39:19;2.50;99.90
4795;DHT22;2411;47.060;15.064;2022-12-10T02:41:51;2.60;99.90
4795;DHT22;2411;47.060;15.064;2022-12-10T02:44:20;2.50;99.90
4795;DHT22;2411;47.060;15.064;2022-12-10T02:46:51;2.50;99.90
4795;DHT22;2411;47.060;15.064;2022-12-10T02:49:20;2.50;99.90
4795;DHT22;2411;47.060;15.064;2022-12-10T02:51:48;2.60;99.90
4795;DHT22;2411;47.060;15.064;2022-12-10T02:54:51;2.60;99.90
4795;DHT22;2411;47.060;15.064;2022-12-10T03:13:00;2.90;99.90
4795;DHT22;2411;47.060;15.064;2022-12-10T03:15:32;2.90;99.90
4795;DHT22;2411;47.060;15.064;2022-12-10T03:18:02;2.80;99.90
4795;DHT22;2411;47.060;15.064;2022-12-10T03:20:38;2.80;99.90
4795;DHT22;2411;47.060;15.064;2022-12-10T03:23:09;2.80;99.90
4795;DHT22;2411;47.060;15.064;2022-12-10T03:25:39;2.80;99.90
4795;DHT22;2411;47.060;15.064;2022-12-10T03:28:06;2.80;99.90
4795;DHT22;2411;47.060;15.064;2022-12-10T03:30:36;2.80;99.90
4795;DHT22;2411;47.060;15.064;2022-12-10T03:33:06;2.70;99.90
4795;DHT22;2411;47.060;15.064;2022-12-10T03:35:34;2.70;99.90
4795;DHT22;2411;47.060;15.064;2022-12-10T03:38:02;2.70;99.90
4795;DHT22;2411;47.060;15.064;2022-12-10T03:40:30;2.70;99.90
4795;DHT22;2411;47.060;15.064;2022-12-10T03:42:57;2.80;99.90
4795;DHT22;2411;47.060;15.064;2022-12-10T03:45:24;2.70;99.90
4795;DHT22;2411;47.060;15.064;2022-12-10T03:47:52;2.80;99.90
4795;DHT22;2411;47.060;15.064;2022-12-10T03:50:19;2.80;99.90
4795;DHT22;2411;47.060;15.064;2022-12-10T03:52:46;2.80;99.90
4795;DHT22;2411;47.060;15.064;2022-12-10T03:55:14;2.80;99.90
4795;DHT22;2411;47.060;15.064;2022-12-10T03:57:41;2.90;99.90
4795;DHT22;2411;47.060;15.064;2022-12-10T04:00:09;2.90;99.90
4795;DHT22;2411;47.060;15.064;2022-12-10T04:02:37;2.90;99.90
4795;DHT22;2411;47.060;15.064;2022-12-10T04:05:04;3.00;99.90
4795;DHT22;2411;47.060;15.064;2022-12-10T04:07:34;3.00;99.90
4795;DHT22;2411;47.060;15.064;2022-12-10T04:10:02;3.00;99.90
4795;DHT22;2411;47.060;15.064;2022-12-10T04:12:30;3.10;99.90
4795;DHT22;2411;47.060;15.064;2022-12-10T04:14:57;3.10;99.90
4795;DHT22;2411;47.060;15.064;2022-12-10T04:17:43;3.10;99.90
4795;DHT22;2411;47.060;15.064;2022-12-10T04:20:10;3.10;99.90
4795;DHT22;2411;47.060;15.064;2022-12-10T04:22:58;3.20;99.90
4795;DHT22;2411;47.060;15.064;2022-12-10T04:25:43;3.20;99.90
4795;DHT22;2411;47.060;15.064;2022-12-10T04:28:29;3.20;99.90
4795;DHT22;2411;47.060;15.064;2022-12-10T04:30:57;3.10;99.90
4795;DHT22;2411;47.060;15.064;2022-12-10T04:33:24;3.10;99.90
4795;DHT22;2411;47.060;15.064;2022-12-10T04:35:51;3.10;99.90
4795;DHT22;2411;47.060;15.064;2022-12-10T04:38:18;3.20;99.90
4795;DHT22;2411;47.060;15.064;2022-12-10T04:40:46;3.20;99.90
4795;DHT22;2411;47.060;15.064;2022-12-10T04:43:13;3.20;99.90
4795;DHT22;2411;47.060;15.064;2022-12-10T04:45:40;3.20;99.90
4795;DHT22;2411;47.060;15.064;2022-12-10T04:48:07;3.10;99.90
4795;DHT22;2411;47.060;15.064;2022-12-10T04:50:34;3.20;99.90
4795;DHT22;2411;47.060;15.064;2022-12-10T04:53:02;3.20;99.90
4795;DHT22;2411;47.060;15.064;2022-12-10T04:55:29;3.20;99.90
4795;DHT22;2411;47.060;15.064;2022-12-10T04:57:56;3.20;99.90
4795;DHT22;2411;47.060;15.064;2022-12-10T05:00:24;3.20;99.90
4795;DHT22;2411;47.060;15.064;2022-12-10T05:02:52;3.30;99.90
4795;DHT22;2411;47.060;15.064;2022-12-10T05:05:19;3.30;99.90
4795;DHT22;2411;47.060;15.064;2022-12-10T05:07:46;3.30;99.90
4795;DHT22;2411;47.060;15.064;2022-12-10T05:10:13;3.30;99.90
4795;DHT22;2411;47.060;15.064;2022-12-10T05:12:41;3.30;99.90
4795;DHT22;2411;47.060;15.064;2022-12-10T05:15:08;3.30;99.90
4795;DHT22;2411;47.060;15.064;2022-12-10T05:17:36;3.30;99.90
4795;DHT22;2411;47.060;15.064;2022-12-10T05:20:03;3.40;99.90
4795;DHT22;2411;47.060;15.064;2022-12-10T05:22:31;3.40;99.90
4795;DHT22;2411;47.060;15.064;2022-12-10T05:25:17;3.40;99.90
4795;DHT22;2411;47.060;15.064;2022-12-10T05:27:44;3.50;99.90
4795;DHT22;2411;47.060;15.064;2022-12-10T05:30:12;3.40;99.90
4795;DHT22;2411;47.060;15.064;2022-12-10T05:32:39;3.50;99.90
4795;DHT22;2411;47.060;15.064;2022-12-10T05:35:07;3.50;99.90
4795;DHT22;2411;47.060;15.064;2022-12-10T05:37:34;3.40;99.90
4795;DHT22;2411;47.060;15.064;2022-12-10T05:40:02;3.50;99.90
4795;DHT22;2411;47.060;15.064;2022-12-10T05:42:29;3.40;99.90
4795;DHT22;2411;47.060;15.064;2022-12-10T05:44:57;3.50;99.90
4795;DHT22;2411;47.060;15.064;2022-12-10T05:47:24;3.50;99.90
4795;DHT22;2411;47.060;15.064;2022-12-10T05:49:51;3.40;99.90
4795;DHT22;2411;47.060;15.064;2022-12-10T05:52:20;3.30;99.90
4795;DHT22;2411;47.060;15.064;2022-12-10T05:54:47;3.30;99.90
4795;DHT22;2411;47.060;15.064;2022-12-10T05:57:15;3.40;99.90
4795;DHT22;2411;47.060;15.064;2022-12-10T05:59:42;3.40;99.90
4795;DHT22;2411;47.060;15.064;2022-12-10T06:02:10;3.40;99.90
4795;DHT22;2411;47.060;15.064;2022-12-10T06:04:37;3.40;99.90
4795;DHT22;2411;47.060;15.064;2022-12-10T06:07:04;3.30;99.90
4795;DHT22;2411;47.060;15.064;2022-12-10T06:09:37;3.30;99.90
4795;DHT22;2411;47.060;15.064;2022-12-10T06:12:04;3.20;99.90
4795;DHT22;2411;47.060;15.064;2022-12-10T06:14:32;3.20;99.90
4795;DHT22;2411;47.060;15.064;2022-12-10T06:16:59;3.20;99.90
4795;DHT22;2411;47.060;15.064;2022-12-10T06:19:26;3.60;99.90
4795;DHT22;2411;47.060;15.064;2022-12-10T06:21:53;3.50;99.90
4795;DHT22;2411;47.060;15.064;2022-12-10T06:24:20;3.90;99.90
4795;DHT22;2411;47.060;15.064;2022-12-10T06:26:48;3.80;99.90
4795;DHT22;2411;47.060;15.064;2022-12-10T06:29:21;3.50;99.90
4795;DHT22;2411;47.060;15.064;2022-12-10T06:31:48;3.50;99.90
4795;DHT22;2411;47.060;15.064;2022-12-10T06:34:16;3.40;99.90
4795;DHT22;2411;47.060;15.064;2022-12-10T06:36:43;3.40;99.90
4795;DHT22;2411;47.060;15.064;2022-12-10T06:39:10;3.30;99.90
4795;DHT22;2411;47.060;15.064;2022-12-10T06:41:38;3.30;99.90
4795;DHT22;2411;47.060;15.064;2022-12-10T06:44:09;3.20;99.90
4795;DHT22;2411;47.060;15.064;2022-12-10T06:46:36;3.20;99.90
4795;DHT22;2411;47.060;15.064;2022-12-10T06:49:04;3.20;99.90
4795;DHT22;2411;47.060;15.064;2022-12-10T06:51:31;3.10;99.90
4795;DHT22;2411;47.060;15.064;2022-12-10T06:53:58;3.10;99.90
4795;DHT22;2411;47.060;15.064;2022-12-10T06:56:26;3.10;99.90
4795;DHT22;2411;47.060;15.064;2022-12-10T06:58:53;3.10;99.90
4795;DHT22;2411;47.060;15.064;2022-12-10T07:01:23;3.20;99.90
4795;DHT22;2411;47.060;15.064;2022-12-10T07:03:56;3.20;99.90
4795;DHT22;2411;47.060;15.064;2022-12-10T07:06:24;3.20;99.90
4795;DHT22;2411;47.060;15.064;2022-12-10T07:08:52;3.20;99.90
4795;DHT22;2411;47.060;15.064;2022-12-10T07:11:22;3.10;99.90
4795;DHT22;2411;47.060;15.064;2022-12-10T07:13:49;3.10;99.90
4795;DHT22;2411;47.060;15.064;2022-12-10T07:16:20;3.20;99.90
4795;DHT22;2411;47.060;15.064;2022-12-10T07:18:48;3.10;99.90
4795;DHT22;2411;47.060;15.064;2022-12-10T07:21:30;3.10;99.90
4795;DHT22;2411;47.060;15.064;2022-12-10T07:24:00;3.10;99.90
4795;DHT22;2411;47.060;15.064;2022-12-10T07:26:29;3.20;99.90
4795;DHT22;2411;47.060;15.064;2022-12-10T07:28:58;3.10;99.90
4795;DHT22;2411;47.060;15.064;2022-12-10T07:31:26;3.10;99.90
4795;DHT22;2411;47.060;15.064;2022-12-10T07:33:54;3.20;99.90
4795;DHT22;2411;47.060;15.064;2022-12-10T07:36:22;3.10;99.90
4795;DHT22;2411;47.060;15.064;2022-12-10T07:38:54;3.10;99.90
4795;DHT22;2411;47.060;15.064;2022-12-10T07:41:23;3.20;99.90
4795;DHT22;2411;47.060;15.064;2022-12-10T07:43:51;3.20;99.90
4795;DHT22;2411;47.060;15.064;2022-12-10T07:46:21;3.20;99.90
4795;DHT22;2411;47.060;15.064;2022-12-10T07:48:50;3.20;99.90
4795;DHT22;2411;47.060;15.064;2022-12-10T07:51:20;3.30;99.90
4795;DHT22;2411;47.060;15.064;2022-12-10T07:53:51;3.30;99.90
4795;DHT22;2411;47.060;15.064;2022-12-10T07:56:20;3.30;99.90
4795;DHT22;2411;47.060;15.064;2022-12-10T07:58:48;3.40;99.90
4795;DHT22;2411;47.060;15.064;2022-12-10T08:01:19;3.40;99.90
4795;DHT22;2411;47.060;15.064;2022-12-10T08:03:46;3.50;99.90
4795;DHT22;2411;47.060;15.064;2022-12-10T08:06:17;3.50;99.90
4795;DHT22;2411;47.060;15.064;2022-12-10T08:08:44;3.50;99.90
4795;DHT22;2411;47.060;15.064;2022-12-10T08:11:13;3.60;99.90
4795;DHT22;2411;47.060;15.064;2022-12-10T08:13:41;3.60;99.90
4795;DHT22;2411;47.060;15.064;2022-12-10T08:16:12;3.60;99.90
4795;DHT22;2411;47.060;15.064;2022-12-10T08:18:39;3.60;99.90
4795;DHT22;2411;47.060;15.064;2022-12-10T08:21:15;3.70;99.90
4795;DHT22;2411;47.060;15.064;2022-12-10T08:23:43;3.70;99.90
4795;DHT22;2411;47.060;15.064;2022-12-10T08:26:18;3.70;99.90
4795;DHT22;2411;47.060;15.064;2022-12-10T08:28:46;3.70;99.90
4795;DHT22;2411;47.060;15.064;2022-12-10T08:31:16;3.70;99.90
4795;DHT22;2411;47.060;15.064;2022-12-10T08:33:44;3.80;99.90
4795;DHT22;2411;47.060;15.064;2022-12-10T08:36:13;3.80;99.90
4795;DHT22;2411;47.060;15.064;2022-12-10T08:38:42;3.80;99.90
4795;DHT22;2411;47.060;15.064;2022-12-10T08:41:20;3.80;99.90
4795;DHT22;2411;47.060;15.064;2022-12-10T08:43:50;3.70;99.90
4795;DHT22;2411;47.060;15.064;2022-12-10T08:46:17;3.80;99.90
4795;DHT22;2411;47.060;15.064;2022-12-10T08:48:45;3.80;99.90
4795;DHT22;2411;47.060;15.064;2022-12-10T08:51:15;3.80;99.90
4795;DHT22;2411;47.060;15.064;2022-12-10T08:53:43;3.80;99.90
4795;DHT22;2411;47.060;15.064;2022-12-10T08:56:11;3.90;99.90
4795;DHT22;2411;47.060;15.064;2022-12-10T08:58:39;3.90;99.90
4795;DHT22;2411;47.060;15.064;2022-12-10T09:01:08;3.90;99.90
4795;DHT22;2411;47.060;15.064;2022-12-10T09:03:36;3.90;99.90
4795;DHT22;2411;47.060;15.064;2022-12-10T09:06:06;3.90;99.90
4795;DHT22;2411;47.060;15.064;2022-12-10T09:08:34;3.90;99.90
4795;DHT22;2411;47.060;15.064;2022-12-10T09:11:07;4.00;99.90
4795;DHT22;2411;47.060;15.064;2022-12-10T09:13:34;4.00;99.90
4795;DHT22;2411;47.060;15.064;2022-12-10T09:16:02;4.00;99.90
4795;DHT22;2411;47.060;15.064;2022-12-10T09:18:29;4.00;99.90
4795;DHT22;2411;47.060;15.064;2022-12-10T09:20:56;4.00;99.90
4795;DHT22;2411;47.060;15.064;2022-12-10T09:23:24;4.10;99.90
4795;DHT22;2411;47.060;15.064;2022-12-10T09:25:51;4.10;99.90
4795;DHT22;2411;47.060;15.064;2022-12-10T09:28:18;4.10;99.90
4795;DHT22;2411;47.060;15.064;2022-12-10T09:30:50;4.10;99.90
4795;DHT22;2411;47.060;15.064;2022-12-10T09:33:21;4.10;99.90
4795;DHT22;2411;47.060;15.064;2022-12-10T09:35:48;4.00;99.90
4795;DHT22;2411;47.060;15.064;2022-12-10T09:38:15;4.10;99.90
4795;DHT22;2411;47.060;15.064;2022-12-10T09:41:04;4.10;99.90
4795;DHT22;2411;47.060;15.064;2022-12-10T09:51:38;4.20;99.90
4795;DHT22;2411;47.060;15.064;2022-12-10T09:57:45;4.20;99.90
4795;DHT22;2411;47.060;15.064;2022-12-10T10:00:20;4.20;99.90
4795;DHT22;2411;47.060;15.064;2022-12-10T10:02:49;4.20;99.90
4795;DHT22;2411;47.060;15.064;2022-12-10T10:05:26;4.20;99.90
4795;DHT22;2411;47.060;15.064;2022-12-10T10:08:03;4.20;99.90
4795;DHT22;2411;47.060;15.064;2022-12-10T10:10:41;4.20;99.90
4795;DHT22;2411;47.060;15.064;2022-12-10T10:13:14;4.30;99.90
4795;DHT22;2411;47.060;15.064;2022-12-10T10:15:44;4.30;99.90
4795;DHT22;2411;47.060;15.064;2022-12-10T10:18:35;4.20;99.90
4795;DHT22;2411;47.060;15.064;2022-12-10T10:21:11;4.20;99.90
4795;DHT22;2411;47.060;15.064;2022-12-10T10:23:43;4.20;99.90
4795;DHT22;2411;47.060;15.064;2022-12-10T10:26:11;4.20;99.90
4795;DHT22;2411;47.060;15.064;2022-12-10T10:28:40;4.20;99.90
4795;DHT22;2411;47.060;15.064;2022-12-10T10:31:29;4.20;99.90
4795;DHT22;2411;47.060;15.064;2022-12-10T10:34:02;4.30;99.90
4795;DHT22;2411;47.060;15.064;2022-12-10T10:36:33;4.30;99.20
4795;DHT22;2411;47.060;15.064;2022-12-10T10:41:43;4.30;99.30
4795;DHT22;2411;47.060;15.064;2022-12-10T10:44:17;4.30;99.90
4795;DHT22;2411;47.060;15.064;2022-12-10T10:46:47;4.40;99.80
4795;DHT22;2411;47.060;15.064;2022-12-10T10:49:29;4.30;97.40
4795;DHT22;2411;47.060;15.064;2022-12-10T10:52:04;4.30;95.80
4795;DHT22;2411;47.060;15.064;2022-12-10T10:54:40;4.30;96.70
4795;DHT22;2411;47.060;15.064;2022-12-10T10:57:18;4.30;98.60
4795;DHT22;2411;47.060;15.064;2022-12-10T10:59:47;4.30;99.50
4795;DHT22;2411;47.060;15.064;2022-12-10T11:03:04;4.30;99.90
4795;DHT22;2411;47.060;15.064;2022-12-10T11:05:30;4.20;98.50
4795;DHT22;2411;47.060;15.064;2022-12-10T11:08:13;4.20;99.90
4795;DHT22;2411;47.060;15.064;2022-12-10T11:10:50;4.20;99.90
4795;DHT22;2411;47.060;15.064;2022-12-10T11:13:23;4.20;99.90
4795;DHT22;2411;47.060;15.064;2022-12-10T11:21:03;4.10;99.90
4795;DHT22;2411;47.060;15.064;2022-12-10T11:23:42;4.10;99.90
4795;DHT22;2411;47.060;15.064;2022-12-10T11:32:16;4.20;99.90
4795;DHT22;2411;47.060;15.064;2022-12-10T11:35:05;4.10;99.90
4795;DHT22;2411;47.060;15.064;2022-12-10T11:37:55;4.20;99.90
4795;DHT22;2411;47.060;15.064;2022-12-10T11:59:31;4.10;99.90
4795;DHT22;2411;47.060;15.064;2022-12-10T12:08:31;4.00;99.90
4795;DHT22;2411;47.060;15.064;2022-12-10T12:16:55;4.00;99.90
4795;DHT22;2411;47.060;15.064;2022-12-10T12:19:36;4.10;99.90
4795;DHT22;2411;47.060;15.064;2022-12-10T12:24:42;4.00;99.90
4795;DHT22;2411;47.060;15.064;2022-12-10T12:38:27;3.90;99.90
4795;DHT22;2411;47.060;15.064;2022-12-10T12:41:31;3.90;99.90
4795;DHT22;2411;47.060;15.064;2022-12-10T12:46:37;3.80;99.90
4795;DHT22;2411;47.060;15.064;2022-12-10T12:52:00;3.80;99.90
4795;DHT22;2411;47.060;15.064;2022-12-10T12:54:28;3.70;99.90
4795;DHT22;2411;47.060;15.064;2022-12-10T12:57:08;3.80;99.90
4795;DHT22;2411;47.060;15.064;2022-12-10T12:59:50;3.80;99.90
4795;DHT22;2411;47.060;15.064;2022-12-10T13:05:39;3.80;99.90
4795;DHT22;2411;47.060;15.064;2022-12-10T13:10:58;3.70;99.90
4795;DHT22;2411;47.060;15.064;2022-12-10T13:13:32;3.80;99.90
4795;DHT22;2411;47.060;15.064;2022-12-10T13:16:35;3.80;99.90
4795;DHT22;2411;47.060;15.064;2022-12-10T13:32:22;3.90;99.90
4795;DHT22;2411;47.060;15.064;2022-12-10T13:38:04;3.90;99.90
4795;DHT22;2411;47.060;15.064;2022-12-10T13:48:55;3.90;99.90
4795;DHT22;2411;47.060;15.064;2022-12-10T13:51:52;3.80;99.90
4795;DHT22;2411;47.060;15.064;2022-12-10T14:00:19;3.70;99.90
4795;DHT22;2411;47.060;15.064;2022-12-10T14:03:08;3.70;99.90
4795;DHT22;2411;47.060;15.064;2022-12-10T14:08:31;3.60;99.90
4795;DHT22;2411;47.060;15.064;2022-12-10T14:11:01;3.70;99.90
4795;DHT22;2411;47.060;15.064;2022-12-10T14:13:40;3.60;99.90
4795;DHT22;2411;47.060;15.064;2022-12-10T14:16:12;3.60;99.90
4795;DHT22;2411;47.060;15.064;2022-12-10T14:18:47;3.60;99.90
4795;DHT22;2411;47.060;15.064;2022-12-10T14:21:17;3.60;99.90
4795;DHT22;2411;47.060;15.064;2022-12-10T14:23:47;3.60;99.90
4795;DHT22;2411;47.060;15.064;2022-12-10T14:26:31;3.50;99.90
4795;DHT22;2411;47.060;15.064;2022-12-10T14:29:19;3.50;99.90
4795;DHT22;2411;47.060;15.064;2022-12-10T14:31:54;3.50;99.90
4795;DHT22;2411;47.060;15.064;2022-12-10T14:34:25;3.50;99.90
4795;DHT22;2411;47.060;15.064;2022-12-10T14:36:56;3.50;99.90
4795;DHT22;2411;47.060;15.064;2022-12-10T14:39:30;3.60;99.90
4795;DHT22;2411;47.060;15.064;2022-12-10T14:42:03;3.50;97.80
4795;DHT22;2411;47.060;15.064;2022-12-10T14:44:31;3.40;96.90
4795;DHT22;2411;47.060;15.064;2022-12-10T14:47:17;3.40;91.30
4795;DHT22;2411;47.060;15.064;2022-12-10T14:49:50;3.40;87.10
4795;DHT22;2411;47.060;15.064;2022-12-10T14:54:47;3.40;98.80
4795;DHT22;2411;47.060;15.064;2022-12-10T14:57:39;3.40;99.90
4795;DHT22;2411;47.060;15.064;2022-12-10T15:00:14;3.50;99.90
4795;DHT22;2411;47.060;15.064;2022-12-10T15:02:45;3.50;99.90
4795;DHT22;2411;47.060;15.064;2022-12-10T15:05:19;3.60;99.90
4795;DHT22;2411;47.060;15.064;2022-12-10T15:08:12;3.50;99.90
4795;DHT22;2411;47.060;15.064;2022-12-10T15:10:44;3.50;99.90
4795;DHT22;2411;47.060;15.064;2022-12-10T15:13:29;3.40;99.90
4795;DHT22;2411;47.060;15.064;2022-12-10T15:15:59;3.40;97.00
4795;DHT22;2411;47.060;15.064;2022-12-10T15:18:37;3.40;94.80
4795;DHT22;2411;47.060;15.064;2022-12-10T15:21:23;3.30;94.70
4795;DHT22;2411;47.060;15.064;2022-12-10T15:24:15;3.20;92.40
4795;DHT22;2411;47.060;15.064;2022-12-10T15:26:45;3.20;95.20
4795;DHT22;2411;47.060;15.064;2022-12-10T15:31:57;3.20;97.20
4795;DHT22;2411;47.060;15.064;2022-12-10T15:34:29;3.20;96.40
4795;DHT22;2411;47.060;15.064;2022-12-10T15:37:03;3.20;96.50
4795;DHT22;2411;47.060;15.064;2022-12-10T15:39:38;3.20;97.80
4795;DHT22;2411;47.060;15.064;2022-12-10T15:42:31;3.20;95.20
4795;DHT22;2411;47.060;15.064;2022-12-10T15:48:12;3.30;94.40
4795;DHT22;2411;47.060;15.064;2022-12-10T15:50:42;3.20;94.60
4795;DHT22;2411;47.060;15.064;2022-12-10T15:53:16;3.20;95.10
4795;DHT22;2411;47.060;15.064;2022-12-10T15:55:48;3.10;94.00
4795;DHT22;2411;47.060;15.064;2022-12-10T15:58:16;3.10;94.20
4795;DHT22;2411;47.060;15.064;2022-12-10T16:00:43;3.00;92.10
4795;DHT22;2411;47.060;15.064;2022-12-10T16:03:13;3.10;89.90
4795;DHT22;2411;47.060;15.064;2022-12-10T16:05:41;3.00;83.90
4795;DHT22;2411;47.060;15.064;2022-12-10T16:08:25;3.10;80.80
4795;DHT22;2411;47.060;15.064;2022-12-10T16:10:56;3.00;77.70
4795;DHT22;2411;47.060;15.064;2022-12-10T16:13:29;2.90;74.90
4795;DHT22;2411;47.060;15.064;2022-12-10T16:16:06;2.90;81.00
4795;DHT22;2411;47.060;15.064;2022-12-10T16:18:34;2.80;82.60
4795;DHT22;2411;47.060;15.064;2022-12-10T16:21:04;2.80;75.20
4795;DHT22;2411;47.060;15.064;2022-12-10T16:23:33;2.70;81.80
4795;DHT22;2411;47.060;15.064;2022-12-10T16:26:00;2.60;86.90
4795;DHT22;2411;47.060;15.064;2022-12-10T16:28:28;2.60;90.00
4795;DHT22;2411;47.060;15.064;2022-12-10T16:30:57;2.60;90.00
4795;DHT22;2411;47.060;15.064;2022-12-10T16:33:26;2.60;91.30
4795;DHT22;2411;47.060;15.064;2022-12-10T16:35:55;2.50;86.50
4795;DHT22;2411;47.060;15.064;2022-12-10T16:38:24;2.40;86.10
4795;DHT22;2411;47.060;15.064;2022-12-10T16:40:52;2.40;88.20
4795;DHT22;2411;47.060;15.064;2022-12-10T16:43:24;2.30;90.00
4795;DHT22;2411;47.060;15.064;2022-12-10T16:45:53;2.30;89.20
4795;DHT22;2411;47.060;15.064;2022-12-10T16:48:21;2.30;89.50
4795;DHT22;2411;47.060;15.064;2022-12-10T16:50:50;2.40;90.60
4795;DHT22;2411;47.060;15.064;2022-12-10T16:55:49;2.50;79.70
4795;DHT22;2411;47.060;15.064;2022-12-10T16:58:16;2.50;74.60
4795;DHT22;2411;47.060;15.064;2022-12-10T17:00:46;2.50;73.30
4795;DHT22;2411;47.060;15.064;2022-12-10T17:03:19;2.60;79.80
4795;DHT22;2411;47.060;15.064;2022-12-10T17:05:56;2.60;75.20
4795;DHT22;2411;47.060;15.064;2022-12-10T17:08:25;2.50;72.50
4795;DHT22;2411;47.060;15.064;2022-12-10T17:10:54;2.40;72.80
4795;DHT22;2411;47.060;15.064;2022-12-10T17:13:41;2.30;74.70
4795;DHT22;2411;47.060;15.064;2022-12-10T17:16:20;2.30;77.60
4795;DHT22;2411;47.060;15.064;2022-12-10T17:18:48;2.40;80.60
4795;DHT22;2411;47.060;15.064;2022-12-10T17:21:16;2.50;84.00
4795;DHT22;2411;47.060;15.064;2022-12-10T17:23:43;2.50;80.30
4795;DHT22;2411;47.060;15.064;2022-12-10T17:26:30;2.50;81.60
4795;DHT22;2411;47.060;15.064;2022-12-10T17:29:04;2.30;80.50
4795;DHT22;2411;47.060;15.064;2022-12-10T17:31:32;2.20;81.90
4795;DHT22;2411;47.060;15.064;2022-12-10T17:33:59;2.10;79.00
4795;DHT22;2411;47.060;15.064;2022-12-10T17:36:26;2.10;82.90
4795;DHT22;2411;47.060;15.064;2022-12-10T17:38:54;2.20;83.10
4795;DHT22;2411;47.060;15.064;2022-12-10T17:41:21;2.30;86.00
4795;DHT22;2411;47.060;15.064;2022-12-10T17:43:49;2.30;82.90
4795;DHT22;2411;47.060;15.064;2022-12-10T17:46:21;2.30;78.30
4795;DHT22;2411;47.060;15.064;2022-12-10T17:48:50;2.30;79.50
4795;DHT22;2411;47.060;15.064;2022-12-10T17:51:17;2.20;79.00
4795;DHT22;2411;47.060;15.064;2022-12-10T17:53:44;2.20;78.90
4795;DHT22;2411;47.060;15.064;2022-12-10T17:56:30;2.30;78.70
4795;DHT22;2411;47.060;15.064;2022-12-10T17:58:57;2.30;74.50
4795;DHT22;2411;47.060;15.064;2022-12-10T18:01:25;2.30;76.40
4795;DHT22;2411;47.060;15.064;2022-12-10T18:03:55;2.30;76.90
4795;DHT22;2411;47.060;15.064;2022-12-10T18:06:27;2.30;78.30
4795;DHT22;2411;47.060;15.064;2022-12-10T18:08:56;2.30;80.10
4795;DHT22;2411;47.060;15.064;2022-12-10T18:11:27;2.30;78.40
4795;DHT22;2411;47.060;15.064;2022-12-10T18:13:55;2.30;82.30
4795;DHT22;2411;47.060;15.064;2022-12-10T18:16:25;2.30;78.40
4795;DHT22;2411;47.060;15.064;2022-12-10T18:18:55;2.30;77.90
4795;DHT22;2411;47.060;15.064;2022-12-10T18:21:23;2.30;80.90
4795;DHT22;2411;47.060;15.064;2022-12-10T18:23:51;2.30;75.80
4795;DHT22;2411;47.060;15.064;2022-12-10T18:26:22;2.20;79.20
4795;DHT22;2411;47.060;15.064;2022-12-10T18:28:58;2.10;78.50
4795;DHT22;2411;47.060;15.064;2022-12-10T18:31:32;2.10;84.20
4795;DHT22;2411;47.060;15.064;2022-12-10T18:34:05;2.10;81.00
4795;DHT22;2411;47.060;15.064;2022-12-10T18:36:36;2.00;83.70
4795;DHT22;2411;47.060;15.064;2022-12-10T18:39:20;2.10;85.20
4795;DHT22;2411;47.060;15.064;2022-12-10T18:41:49;2.00;84.60
4795;DHT22;2411;47.060;15.064;2022-12-10T18:44:19;2.00;84.40
4795;DHT22;2411;47.060;15.064;2022-12-10T18:46:52;2.00;83.70
4795;DHT22;2411;47.060;15.064;2022-12-10T18:49:19;2.00;85.10
4795;DHT22;2411;47.060;15.064;2022-12-10T18:51:47;2.00;83.70
4795;DHT22;2411;47.060;15.064;2022-12-10T18:54:14;2.00;83.20
4795;DHT22;2411;47.060;15.064;2022-12-10T18:56:42;2.10;84.40
4795;DHT22;2411;47.060;15.064;2022-12-10T18:59:17;2.00;79.10
4795;DHT22;2411;47.060;15.064;2022-12-10T19:01:45;2.00;83.50
4795;DHT22;2411;47.060;15.064;2022-12-10T19:04:12;2.10;86.40
4795;DHT22;2411;47.060;15.064;2022-12-10T19:06:40;1.90;82.50